Terminal Aerodrome Forecast
Issued by NWS

Home | Current Version | Previous Version | Text Only | Print | Product List | Glossary On
Versions: 1 2 3 4 5 6 7 8 9 10 11 12 13 14 15 16 17 18 19 20 21 22 23 24 25
000
FTUS45 KGJT 301120
TAFDRO
TAF
KDRO 301120Z 3012/3112 00000KT P6SM SCT200
     FM301400 VRB03KT P6SM FEW100 SCT200
     FM302000 25006KT P6SM SCT100 BKN200
     FM310200 36005KT P6SM VCSH BKN100 BKN200=

USA.gov is the U.S. government's official web portal to all federal, state and local government web resources and services.